createdAt,value
2018-08-19T00:47:00.339Z,99.90
2018-08-19T00:52:01.899Z,99.90
2018-08-19T00:56:55.832Z,99.90
2018-08-19T01:01:49.095Z,99.90
2018-08-19T01:06:48.134Z,99.90
2018-08-19T02:16:23.063Z,99.90
2018-08-19T02:21:16.392Z,99.90
2018-08-19T02:26:09.844Z,99.90
2018-08-19T02:31:03.173Z,99.90
2018-08-19T02:36:01.021Z,99.90
2018-08-19T03:45:47.938Z,99.90
2018-08-19T03:50:41.191Z,99.90
2018-08-19T03:55:37.221Z,99.90
2018-08-19T04:00:32.340Z,99.90
2018-08-19T04:05:43.078Z,99.90
2018-08-19T05:15:30.330Z,99.90
2018-08-19T05:20:23.647Z,99.90
2018-08-19T05:25:16.950Z,99.90
2018-08-19T05:30:10.805Z,99.90
2018-08-19T06:39:36.748Z,77.40
2018-08-19T06:44:30.022Z,75.60
2018-08-19T06:49:26.274Z,74.70
2018-08-19T06:54:19.552Z,73.60
2018-08-19T07:36:55.162Z,61.00
2018-08-19T07:41:48.394Z,59.30
2018-08-19T07:46:41.622Z,58.30
2018-08-19T07:51:34.947Z,58.30
2018-08-19T07:56:28.231Z,56.40
2018-08-19T08:01:21.489Z,54.40
2018-08-19T08:06:14.753Z,54.30
2018-08-19T08:11:08.009Z,52.10
2018-08-19T08:16:01.805Z,50.30
2018-08-19T08:21:00.870Z,48.10
2018-08-19T08:25:54.201Z,49.50
2018-08-19T08:30:47.411Z,47.90
2018-08-19T08:35:45.228Z,47.80
2018-08-19T08:40:38.464Z,50.30
2018-08-19T08:45:36.260Z,50.40
2018-08-19T08:50:29.547Z,47.60
2018-08-19T08:55:22.873Z,47.40
2018-08-19T09:00:16.115Z,46.60
2018-08-19T09:05:11.403Z,45.80
2018-08-19T09:10:05.502Z,47.70
2018-08-19T09:14:58.771Z,49.90
2018-08-19T09:19:52.084Z,50.60
2018-08-19T09:24:45.341Z,51.10
2018-08-19T09:29:38.586Z,49.60
2018-08-19T09:34:31.861Z,50.00
2018-08-19T09:39:25.166Z,50.90
2018-08-19T09:44:18.592Z,49.60
2018-08-19T09:49:11.829Z,49.30
2018-08-19T09:54:06.107Z,49.40
2018-08-19T09:59:05.028Z,48.40
2018-08-19T10:03:58.484Z,48.60
2018-08-19T10:08:51.756Z,50.70
2018-08-19T10:13:47.402Z,49.80
2018-08-19T10:18:40.623Z,49.50
2018-08-19T10:23:33.974Z,50.40
2018-08-19T10:28:27.262Z,52.60
2018-08-19T10:33:21.697Z,55.00
2018-08-19T10:38:16.046Z,54.80
2018-08-19T10:43:10.119Z,56.30
2018-08-19T10:48:03.676Z,57.40
2018-08-19T10:52:56.960Z,57.90
2018-08-19T10:57:50.263Z,59.60
2018-08-19T11:02:43.599Z,58.60
2018-08-19T11:07:36.902Z,58.50
2018-08-19T11:12:30.234Z,59.30
2018-08-19T11:17:23.579Z,59.50
2018-08-19T11:22:17.463Z,59.60
2018-08-19T11:27:10.753Z,60.60
2018-08-19T11:32:04.146Z,60.10
2018-08-19T11:36:57.371Z,60.80
2018-08-19T11:41:50.677Z,60.80
2018-08-19T11:46:43.966Z,59.70
2018-08-19T11:51:58.883Z,60.50
2018-08-19T11:57:00.772Z,61.20
2018-08-19T12:01:54.044Z,61.00
2018-08-19T12:06:47.304Z,59.90
2018-08-19T12:11:41.412Z,60.80
2018-08-19T12:16:47.094Z,61.20
2018-08-19T12:21:44.825Z,60.70
2018-08-19T12:26:42.434Z,60.30
2018-08-19T12:31:35.865Z,59.60
2018-08-19T12:36:29.182Z,59.50
2018-08-19T12:41:22.503Z,60.50
2018-08-19T12:46:15.768Z,59.60
2018-08-19T12:51:09.114Z,60.00
2018-08-19T12:56:02.345Z,60.00
2018-08-19T13:00:55.601Z,60.10
2018-08-19T13:06:04.118Z,59.20
2018-08-19T13:11:01.559Z,60.40
2018-08-19T13:15:54.915Z,58.70
2018-08-19T13:20:48.167Z,58.90
2018-08-19T13:25:41.397Z,58.70
2018-08-19T13:30:34.729Z,57.70
2018-08-19T13:35:28.048Z,57.70
2018-08-19T13:40:21.343Z,57.30
2018-08-19T13:45:17.742Z,57.80
2018-08-19T13:50:11.252Z,57.90
2018-08-19T13:55:08.132Z,56.70
2018-08-19T14:00:01.451Z,56.10
2018-08-19T14:04:54.695Z,56.10
2018-08-19T14:09:47.986Z,56.30
2018-08-19T14:14:41.191Z,56.20
2018-08-19T14:19:34.396Z,55.70
2018-08-19T14:24:27.606Z,56.50
2018-08-19T14:29:20.880Z,56.00
2018-08-19T14:34:14.124Z,56.00
2018-08-19T14:39:07.427Z,56.10
2018-08-19T14:44:02.474Z,56.50
2018-08-19T14:48:57.733Z,56.10
2018-08-19T14:53:50.987Z,56.50
2018-08-19T14:58:45.104Z,56.10
2018-08-19T15:03:44.182Z,56.00
2018-08-19T15:08:37.452Z,56.40
2018-08-19T15:13:30.694Z,56.70
2018-08-19T15:18:24.834Z,56.70
2018-08-19T15:23:19.862Z,56.30
2018-08-19T15:28:13.357Z,56.20
2018-08-19T15:33:06.935Z,55.50
2018-08-19T15:38:00.490Z,56.30
2018-08-19T15:42:53.752Z,56.40
2018-08-19T15:47:46.990Z,56.40
2018-08-19T15:52:40.249Z,56.00
2018-08-19T15:57:33.532Z,56.10
2018-08-19T16:02:26.848Z,56.00
2018-08-19T16:07:20.072Z,55.90
2018-08-19T16:12:13.924Z,55.50
2018-08-19T16:17:07.187Z,55.60
2018-08-19T16:22:00.596Z,56.10
2018-08-19T16:26:53.925Z,56.50
2018-08-19T16:31:47.231Z,57.40
2018-08-19T16:36:40.545Z,58.80
2018-08-19T16:41:33.852Z,59.90
2018-08-19T16:46:27.096Z,61.50
2018-08-19T16:51:20.753Z,62.40
2018-08-19T16:56:14.089Z,63.20
2018-08-19T17:01:07.390Z,64.30
2018-08-19T17:06:00.802Z,64.80
2018-08-19T17:10:54.058Z,65.50
2018-08-19T17:15:47.322Z,66.10
2018-08-19T17:20:41.322Z,66.60
2018-08-19T17:25:34.621Z,67.40
2018-08-19T17:30:27.847Z,68.20
2018-08-19T17:35:21.116Z,68.40
2018-08-19T17:40:15.043Z,68.90
2018-08-19T17:45:08.409Z,69.60
2018-08-19T17:50:01.682Z,70.10
2018-08-19T17:54:54.925Z,71.60
2018-08-19T17:59:48.876Z,71.60
2018-08-19T18:04:46.343Z,72.40
2018-08-19T18:09:44.110Z,73.20
2018-08-19T18:14:37.335Z,74.20
2018-08-19T18:19:35.496Z,75.10
2018-08-19T18:24:29.724Z,76.00
2018-08-19T18:29:37.943Z,77.10
2018-08-19T18:34:32.263Z,78.00
2018-08-19T18:39:26.602Z,78.50
2018-08-19T18:44:20.109Z,79.30
2018-08-19T18:49:13.667Z,80.40
2018-08-19T18:54:15.814Z,81.50
2018-08-19T18:59:10.090Z,82.30
2018-08-19T19:04:03.900Z,83.10
2018-08-19T19:08:57.267Z,83.80
2018-08-19T19:13:50.528Z,84.80
2018-08-19T19:18:43.999Z,85.40
2018-08-19T19:23:39.421Z,86.10
2018-08-19T19:33:51.847Z,87.50
2018-08-19T19:39:01.992Z,88.20
2018-08-19T19:44:13.595Z,89.10
2018-08-19T19:49:20.701Z,90.20
2018-08-19T19:54:19.433Z,90.40
2018-08-19T19:59:20.994Z,90.70
2018-08-19T20:04:14.493Z,90.90
2018-08-19T20:09:08.264Z,91.20
2018-08-19T20:14:02.902Z,91.50
2018-08-19T20:18:56.167Z,91.80
2018-08-19T20:23:51.248Z,91.80
2018-08-19T20:28:48.774Z,92.20
2018-08-19T20:33:42.144Z,92.50
2018-08-19T20:38:35.456Z,92.60
2018-08-19T20:43:28.815Z,92.90
2018-08-19T20:48:22.564Z,93.30
2018-08-19T20:53:16.182Z,93.50
2018-08-19T20:58:10.169Z,93.60
2018-08-19T21:03:03.612Z,93.60
2018-08-19T21:08:06.502Z,93.70
2018-08-19T21:12:59.828Z,93.90
2018-08-19T21:17:53.079Z,94.30
2018-08-19T21:22:46.337Z,94.60
2018-08-19T21:27:39.826Z,95.10
2018-08-19T21:32:33.478Z,95.40
2018-08-19T21:37:34.449Z,95.60
2018-08-19T21:42:27.801Z,96.00
2018-08-19T21:47:21.068Z,95.90
2018-08-19T21:52:14.303Z,96.20
2018-08-19T21:57:07.561Z,96.50
2018-08-19T22:02:00.812Z,96.90
2018-08-19T22:06:54.105Z,97.10
2018-08-19T22:11:47.409Z,97.30
2018-08-19T22:16:40.700Z,97.60
2018-08-19T22:21:33.976Z,97.80
2018-08-19T22:26:27.219Z,97.70
2018-08-19T22:31:25.649Z,97.70
2018-08-19T22:36:19.435Z,98.10
2018-08-19T22:41:12.646Z,98.30
2018-08-19T22:46:05.888Z,98.30
2018-08-19T22:50:59.124Z,98.30
2018-08-19T22:55:52.382Z,98.30
2018-08-19T23:00:46.575Z,98.40
2018-08-19T23:05:39.792Z,98.60
2018-08-19T23:10:33.036Z,98.80
2018-08-19T23:15:37.788Z,98.90
2018-08-19T23:20:31.029Z,99.10
2018-08-19T23:25:24.441Z,99.20
2018-08-19T23:30:17.754Z,99.30
2018-08-19T23:35:11.033Z,99.10
2018-08-19T23:40:04.800Z,98.70
2018-08-19T23:44:58.084Z,98.20
2018-08-19T23:49:51.358Z,97.90
2018-08-19T23:54:44.639Z,97.80
2018-08-19T23:59:37.928Z,97.60
